Time;durP1;ratioP1;P1;durP2;ratioP2;P2;SDS_P1;SDS_P2;PMS_P1;PMS_P2;Temp;Humidity;BMP_temperature;BMP_pressure;BME280_temperature;BME280_humidity;BME280_pressure;Samples;Min_cycle;Max_cycle;Signal;HPM_P1;HPM_P2
2022/08/04 20:37:14;;;;;;;16.03;7.83;;;21.10;1.00;;;;;;5127255;27;21187;-51
2022/08/04 20:39:40;;;;;;;16.33;8.33;;;20.80;99.90;;;;;;5128818;27;20424;-51
2022/08/04 20:42:06;;;;;;;19.00;8.80;;;20.70;99.90;;;;;;5120041;28;20191;-51
2022/08/04 20:44:32;;;;;;;18.40;9.10;;;20.70;1.00;;;;;;5114338;27;20221;-51
2022/08/04 20:46:57;;;;;;;14.03;7.93;;;20.70;1.00;;;;;;5110628;27;20624;-51
2022/08/04 20:49:23;;;;;;;12.37;8.47;;;20.50;1.00;;;;;;5114062;28;20180;-51
2022/08/04 20:51:49;;;;;;;14.07;8.53;;;20.50;99.90;;;;;;5123258;27;20187;-51
2022/08/04 20:54:15;;;;;;;23.60;9.27;;;20.50;1.00;;;;;;5111340;27;20219;-51
2022/08/04 20:56:41;;;;;;;19.20;10.40;;;20.40;1.00;;;;;;5108926;28;20169;-51
2022/08/04 20:59:06;;;;;;;20.60;9.67;;;20.40;1.00;;;;;;5118040;28;20518;-51
2022/08/04 21:01:32;;;;;;;22.23;10.30;;;20.40;99.90;;;;;;5119485;28;20249;-51
2022/08/04 21:06:43;;;;;;;27.90;10.70;;;20.10;99.90;;;;;;5112215;28;20711;-51
2022/08/04 21:09:08;;;;;;;23.77;12.97;;;20.10;1.00;;;;;;5125527;28;20453;-51
2022/08/04 21:11:34;;;;;;;24.60;11.30;;;20.10;99.90;;;;;;5112919;28;20263;-51
2022/08/04 21:14:00;;;;;;;30.83;12.03;;;20.00;1.00;;;;;;5118907;28;20187;-51
2022/08/04 21:16:25;;;;;;;25.60;11.47;;;19.90;1.00;;;;;;5124402;27;20188;-51
2022/08/04 21:18:51;;;;;;;28.80;12.70;;;19.90;1.00;;;;;;5114726;28;20445;-51
2022/08/04 21:21:17;;;;;;;28.07;13.50;;;19.80;1.00;;;;;;5123439;28;20855;-51
2022/08/04 21:23:42;;;;;;;28.40;13.03;;;19.70;99.90;;;;;;5127214;28;20189;-51
2022/08/04 21:26:08;;;;;;;27.10;13.23;;;19.70;1.00;;;;;;5125396;28;20211;-51
2022/08/04 21:28:33;;;;;;;33.57;14.57;;;19.70;1.00;;;;;;5111413;28;20180;-51
2022/08/04 21:31:00;;;;;;;27.10;13.33;;;19.60;1.00;;;;;;5113394;28;20212;-51
2022/08/04 21:33:27;;;;;;;27.20;13.70;;;19.50;54.80;;;;;;5109683;28;20264;-51
2022/08/04 21:35:53;;;;;;;31.57;14.83;;;19.50;1.00;;;;;;5124603;28;20478;-51
2022/08/04 21:38:19;;;;;;;35.77;15.10;;;19.50;99.90;;;;;;5097518;28;20427;-51
2022/08/04 21:40:55;;;;;;;38.77;14.60;;;19.50;1.00;;;;;;5113023;28;20499;-51
2022/08/04 21:43:21;;;;;;;34.00;14.77;;;19.50;1.00;;;;;;5110803;28;20461;-51
2022/08/04 21:45:47;;;;;;;28.50;13.90;;;19.50;1.00;;;;;;5098524;28;20478;-51
2022/08/04 21:48:12;;;;;;;27.77;14.67;;;19.50;99.90;;;;;;5097812;28;20438;-51
2022/08/04 21:50:38;;;;;;;32.97;14.20;;;19.40;9.00;;;;;;5097321;28;20973;-51
2022/08/04 21:53:05;;;;;;;34.90;16.00;;;19.40;3.60;;;;;;5095527;28;20731;-51
2022/08/04 21:55:31;;;;;;;35.23;15.20;;;19.30;99.90;;;;;;5100466;28;20196;-51
2022/08/04 21:57:57;;;;;;;39.97;15.47;;;19.30;99.90;;;;;;5114276;28;20437;-51
2022/08/04 22:00:22;;;;;;;47.90;16.23;;;19.20;1.00;;;;;;5111093;28;20211;-51
2022/08/04 22:02:48;;;;;;;31.60;14.70;;;19.20;1.00;;;;;;5112669;28;20184;-51
2022/08/04 22:05:13;;;;;;;32.90;15.90;;;19.20;1.00;;;;;;5098695;28;20287;-51
2022/08/04 22:07:39;;;;;;;36.90;16.47;;;19.10;1.00;;;;;;5115198;28;20306;-51
2022/08/04 22:10:05;;;;;;;35.60;15.93;;;19.10;31.70;;;;;;5112886;28;20185;-51
2022/08/04 22:12:31;;;;;;;35.50;16.17;;;19.10;63.20;;;;;;5114335;28;20630;-51
2022/08/04 22:14:58;;;;;;;34.23;15.57;;;19.10;80.10;;;;;;5101243;28;20496;-51
2022/08/04 22:17:24;;;;;;;35.23;15.90;;;19.10;97.10;;;;;;5109601;28;20223;-51
2022/08/04 22:19:50;;;;;;;34.00;14.67;;;19.00;99.90;;;;;;5102244;28;20446;-51
2022/08/04 22:22:16;;;;;;;32.20;16.17;;;19.00;99.90;;;;;;5094709;28;20772;-51
2022/08/04 22:24:41;;;;;;;37.90;16.70;;;19.00;99.90;;;;;;5102169;28;20198;-51
2022/08/04 22:27:11;;;;;;;37.00;15.57;;;18.90;99.90;;;;;;5097672;28;20526;-51
2022/08/04 22:29:37;;;;;;;40.77;14.43;;;18.90;99.90;;;;;;5100038;28;20528;-51
2022/08/04 22:32:03;;;;;;;29.67;14.93;;;18.90;99.90;;;;;;5108942;28;20438;-51
2022/08/04 22:34:29;;;;;;;34.30;15.60;;;18.80;99.90;;;;;;5104333;28;20951;-51
2022/08/04 22:36:54;;;;;;;35.17;15.47;;;18.80;99.90;;;;;;5099859;28;20224;-51
2022/08/04 22:39:20;;;;;;;35.40;15.73;;;18.80;99.90;;;;;;5100686;28;20246;-51
2022/08/04 22:41:47;;;;;;;31.60;15.40;;;18.80;99.90;;;;;;5093946;28;20207;-51
2022/08/04 22:44:12;;;;;;;38.03;16.63;;;18.80;99.90;;;;;;5092463;28;20448;-51
2022/08/04 22:46:38;;;;;;;36.20;15.07;;;18.80;99.90;;;;;;5092839;28;20459;-51
2022/08/04 22:49:04;;;;;;;34.53;17.00;;;18.80;99.90;;;;;;5101246;28;20241;-51
2022/08/04 22:51:29;;;;;;;38.10;14.27;;;18.70;99.90;;;;;;5107923;28;20711;-51
2022/08/04 22:53:55;;;;;;;32.40;13.97;;;18.70;99.90;;;;;;5105353;28;20200;-51
2022/08/04 22:56:21;;;;;;;35.53;13.80;;;18.70;99.90;;;;;;5096260;28;20272;-51
2022/08/04 22:58:46;;;;;;;36.33;15.00;;;18.70;99.90;;;;;;5112867;28;20275;-51
2022/08/04 23:01:13;;;;;;;34.43;14.10;;;18.60;99.90;;;;;;5111841;28;20877;-51
2022/08/04 23:03:39;;;;;;;34.63;14.97;;;18.60;99.90;;;;;;5102729;27;20950;-51
2022/08/04 23:06:06;;;;;;;35.37;13.80;;;18.60;99.90;;;;;;5111853;28;20507;-51
2022/08/04 23:08:33;;;;;;;33.93;15.90;;;18.60;99.90;;;;;;5111896;28;20176;-51
2022/08/04 23:10:59;;;;;;;51.43;16.77;;;18.50;99.90;;;;;;5114007;27;20462;-51
2022/08/04 23:13:24;;;;;;;37.40;15.57;;;18.50;99.90;;;;;;5107347;28;20444;-51
2022/08/04 23:15:50;;;;;;;32.70;14.90;;;18.50;99.90;;;;;;5092045;28;20622;-51
2022/08/04 23:18:16;;;;;;;45.07;16.30;;;18.50;99.90;;;;;;5091928;28;20256;-51
2022/08/04 23:20:42;;;;;;;35.90;15.77;;;18.50;99.90;;;;;;5091823;28;20503;-51
2022/08/04 23:23:07;;;;;;;40.93;16.70;;;18.40;99.90;;;;;;5092606;27;20169;-51
2022/08/04 23:25:33;;;;;;;32.33;15.73;;;18.40;99.90;;;;;;5093598;28;20624;-51
2022/08/04 23:27:58;;;;;;;43.23;16.73;;;18.40;99.90;;;;;;5091937;28;20273;-51
2022/08/04 23:30:24;;;;;;;33.27;14.47;;;18.40;99.90;;;;;;5092271;28;20184;-52
2022/08/04 23:32:51;;;;;;;35.20;15.63;;;18.40;99.90;;;;;;5091725;28;20165;-51
2022/08/04 23:35:17;;;;;;;34.10;14.03;;;18.30;99.90;;;;;;5107441;28;20470;-51
2022/08/04 23:37:42;;;;;;;31.93;13.67;;;18.30;99.90;;;;;;5111046;28;20786;-51
2022/08/04 23:40:09;;;;;;;28.67;14.33;;;18.30;99.90;;;;;;5104157;28;20217;-51
2022/08/04 23:42:34;;;;;;;36.00;14.27;;;18.30;99.90;;;;;;5100223;28;20526;-51
2022/08/04 23:45:00;;;;;;;31.73;13.70;;;18.30;99.90;;;;;;5110719;28;20465;-51
2022/08/04 23:47:26;;;;;;;29.87;13.13;;;18.20;99.90;;;;;;5111343;28;20185;-51
2022/08/04 23:49:51;;;;;;;25.20;12.20;;;18.20;99.90;;;;;;5110879;28;20892;-51
2022/08/04 23:52:17;;;;;;;23.00;11.43;;;18.20;99.90;;;;;;5108328;28;20202;-51
2022/08/04 23:54:43;;;;;;;26.30;11.63;;;18.10;99.90;;;;;;5091207;28;20181;-51
2022/08/04 23:57:13;;;;;;;21.77;11.27;;;18.10;99.90;;;;;;5103493;28;20540;-51
2022/08/04 23:59:39;;;;;;;23.07;10.50;;;18.10;99.90;;;;;;5109025;28;20431;-51
